Time;durP1;ratioP1;P1;durP2;ratioP2;P2;SDS_P1;SDS_P2;PMS_P1;PMS_P2;Temp;Humidity;BMP_temperature;BMP_pressure;BME280_temperature;BME280_humidity;BME280_pressure;Samples;Min_cycle;Max_cycle;Signal;HPM_P1;HPM_P2
2023/05/26 00:26:27;;;;;;;17.25;8.68;;;16.60;99.90;;;;;;4977653;23;20040;-82
2023/05/26 00:36:16;;;;;;;13.68;7.80;;;16.20;99.90;;;;;;4958088;23;20068;-82
2023/05/26 00:38:57;;;;;;;13.88;8.05;;;16.30;99.90;;;;;;4917533;29;20451;-82
2023/05/26 00:48:56;;;;;;;15.23;9.07;;;16.20;99.90;;;;;;5800534;23;20545;-80
2023/05/26 00:52:38;;;;;;;13.48;7.88;;;16.10;99.90;;;;;;4853685;29;20061;-81
2023/05/26 00:55:28;;;;;;;14.32;8.25;;;16.10;99.90;;;;;;4869957;29;20082;-81
2023/05/26 00:58:45;;;;;;;13.23;8.50;;;16.00;99.90;;;;;;4867051;29;20068;-83
2023/05/26 01:01:26;;;;;;;13.27;7.72;;;15.90;99.90;;;;;;5102366;23;20048;-81
2023/05/26 01:04:10;;;;;;;12.50;8.00;;;16.00;99.90;;;;;;4915675;29;20060;-79
2023/05/26 01:07:06;;;;;;;15.27;7.90;;;16.00;99.90;;;;;;4902469;29;20059;-79
2023/05/26 01:14:17;;;;;;;13.48;7.30;;;15.80;99.90;;;;;;4930206;29;20096;-79
2023/05/26 01:25:14;;;;;;;11.02;7.43;;;15.80;99.90;;;;;;4905667;29;20405;-81
2023/05/26 01:28:14;;;;;;;11.18;6.82;;;15.70;99.90;;;;;;4921257;29;20411;-81
2023/05/26 01:30:58;;;;;;;10.88;6.53;;;15.60;99.90;;;;;;4907490;29;20152;-80
2023/05/26 01:33:39;;;;;;;9.15;6.28;;;15.60;99.90;;;;;;4913365;29;20237;-80
2023/05/26 01:36:20;;;;;;;12.73;7.18;;;15.70;99.90;;;;;;4903053;29;20052;-79
2023/05/26 01:38:52;;;;;;;12.60;7.43;;;15.90;99.90;;;;;;4909547;29;20057;-80
2023/05/26 01:45:27;;;;;;;12.45;6.82;;;15.70;99.90;;;;;;4900019;29;20060;-83
2023/05/26 01:49:01;;;;;;;9.48;7.35;;;15.70;99.90;;;;;;4903629;29;20055;-82
2023/05/26 01:55:29;;;;;;;12.52;7.32;;;15.70;99.90;;;;;;4903097;29;20056;-80
2023/05/26 01:57:58;;;;;;;16.55;7.40;;;15.60;99.90;;;;;;4881854;29;20173;-78
2023/05/26 02:13:06;;;;;;;12.13;6.00;;;15.70;99.90;;;;;;5743207;24;20061;-79
2023/05/26 02:16:07;;;;;;;9.38;6.32;;;15.90;99.90;;;;;;5099628;23;20035;31
2023/05/26 02:19:08;;;;;;;11.10;6.65;;;15.90;99.90;;;;;;4915806;23;20593;-82
2023/05/26 02:21:49;;;;;;;8.98;6.28;;;15.70;99.90;;;;;;4895422;29;20123;-81
2023/05/26 02:24:41;;;;;;;12.75;7.03;;;15.70;99.90;;;;;;4891263;29;20056;-80
2023/05/26 02:36:41;;;;;;;10.90;6.90;;;15.90;99.90;;;;;;4854246;29;20078;-81
2023/05/26 02:39:10;;;;;;;11.35;6.40;;;15.80;99.90;;;;;;4878225;29;20060;-80
2023/05/26 02:41:42;;;;;;;8.63;6.10;;;15.90;99.90;;;;;;4899581;29;20052;-81
2023/05/26 02:44:35;;;;;;;12.00;7.00;;;15.90;99.90;;;;;;4888612;29;20056;-80
2023/05/26 02:47:40;;;;;;;11.15;6.68;;;15.90;99.90;;;;;;5492744;23;20028;-80
2023/05/26 02:50:52;;;;;;;12.38;7.00;;;15.90;99.90;;;;;;4890742;29;20080;-81
2023/05/26 02:53:33;;;;;;;13.45;7.35;;;15.90;99.90;;;;;;4898728;29;20127;-78
2023/05/26 03:00:05;;;;;;;10.35;6.70;;;15.90;99.90;;;;;;5159484;23;20257;-80
2023/05/26 03:03:39;;;;;;;10.40;6.95;;;15.60;99.90;;;;;;4916387;29;20178;-80
2023/05/26 03:10:39;;;;;;;13.88;7.05;;;15.10;99.90;;;;;;4921290;29;20035;-82
2023/05/26 03:22:52;;;;;;;;;;;;;;;;;;;;;
2023/05/26 03:25:44;;;;;;;11.35;7.60;;;15.70;99.90;;;;;;4858659;29;20045;-80
2023/05/26 03:32:48;;;;;;;15.65;7.50;;;16.00;99.90;;;;;;4852352;29;20085;-81
2023/05/26 03:39:26;;;;;;;12.63;8.45;;;16.00;99.90;;;;;;4845132;29;20141;-82
2023/05/26 03:43:26;;;;;;;14.82;7.18;;;16.00;99.90;;;;;;4834102;29;20092;-82
2023/05/26 03:46:58;;;;;;;13.05;7.85;;;16.10;99.90;;;;;;4850200;29;20065;-80
2023/05/26 03:49:35;;;;;;;15.43;8.35;;;16.10;99.90;;;;;;4850099;29;20117;-80
2023/05/26 03:56:06;;;;;;;15.85;7.80;;;15.50;99.90;;;;;;4849972;29;20532;-78
2023/05/26 04:12:05;;;;;;;16.50;9.00;;;15.30;99.90;;;;;;5763828;23;20465;-78
2023/05/26 04:14:46;;;;;;;13.80;8.63;;;15.70;99.90;;;;;;4889602;29;20059;-78
2023/05/26 04:17:55;;;;;;;;;;;15.90;99.90;;;;;;4867397;29;20059;-79
2023/05/26 04:20:32;;;;;;;13.38;8.23;;;16.00;99.90;;;;;;5132219;23;19919;-80
2023/05/26 04:23:14;;;;;;;16.48;8.23;;;16.20;99.90;;;;;;4932744;29;20500;-80
2023/05/26 04:25:42;;;;;;;13.85;8.93;;;16.30;99.90;;;;;;4909975;29;20048;-83
2023/05/26 04:28:28;;;;;;;16.00;9.90;;;16.40;99.90;;;;;;5030057;23;20056;-80
2023/05/26 04:31:32;;;;;;;21.23;9.50;;;16.30;99.90;;;;;;4897028;29;20040;-79
2023/05/26 04:34:06;;;;;;;18.33;10.52;;;16.30;99.90;;;;;;4866962;29;20063;-80
2023/05/26 04:36:39;;;;;;;18.70;10.32;;;16.00;99.90;;;;;;4882396;29;20108;-81
2023/05/26 04:39:42;;;;;;;19.33;11.20;;;15.90;99.90;;;;;;4856236;29;20113;-82
2023/05/26 04:42:28;;;;;;;17.70;8.65;;;15.80;99.90;;;;;;5014448;23;20421;-84
2023/05/26 04:47:54;;;;;;;17.77;8.70;;;15.40;99.90;;;;;;5030854;23;20048;-81
2023/05/26 04:50:39;;;;;;;13.75;7.38;;;15.40;99.90;;;;;;4893074;29;20052;-82
2023/05/26 04:54:22;;;;;;;14.82;8.32;;;15.40;99.90;;;;;;4893724;29;20077;-83
2023/05/26 04:57:29;;;;;;;16.05;8.65;;;15.50;99.90;;;;;;4930377;29;20059;-81
2023/05/26 05:00:44;;;;;;;;;;;;;;;;;;;;;
2023/05/26 05:03:56;;;;;;;14.20;8.25;;;15.70;99.90;;;;;;4917875;29;20171;-80
2023/05/26 05:06:37;;;;;;;16.25;9.98;;;15.80;99.90;;;;;;4904844;29;20048;-81
2023/05/26 05:09:18;;;;;;;13.68;9.02;;;15.90;99.90;;;;;;4910879;29;20054;-80
2023/05/26 05:12:01;;;;;;;14.68;8.32;;;16.10;99.90;;;;;;4899534;29;21168;-81
2023/05/26 05:14:55;;;;;;;16.00;8.60;;;16.20;99.90;;;;;;4926146;29;20051;-82
2023/05/26 05:18:19;;;;;;;18.40;8.95;;;16.40;99.90;;;;;;4888893;29;20516;-83
2023/05/26 05:21:01;;;;;;;18.27;9.05;;;16.50;99.90;;;;;;4892503;29;20112;-79
2023/05/26 05:26:42;;;;;;;94.28;59.55;;;16.60;99.90;;;;;;4927911;23;20049;-78
2023/05/26 05:33:07;;;;;;;;;;;;;;;;;;;;;
2023/05/26 05:36:20;;;;;;;96.30;62.40;;;16.80;99.90;;;;;;4902664;29;20096;-77
2023/05/26 05:38:50;;;;;;;24.17;15.63;;;17.00;99.90;;;;;;4883658;29;20052;-79
2023/05/26 05:41:51;;;;;;;20.67;12.00;;;17.10;99.90;;;;;;4887683;29;20453;-80
2023/05/26 05:48:36;;;;;;;18.42;9.70;;;17.30;99.90;;;;;;4874687;29;20140;-78
2023/05/26 05:51:55;;;;;;;17.75;10.32;;;17.40;99.90;;;;;;4945022;23;20473;31
2023/05/26 05:54:50;;;;;;;17.38;9.70;;;17.50;99.90;;;;;;5070851;23;20076;-81
2023/05/26 06:04:13;;;;;;;33.00;16.25;;;17.60;99.90;;;;;;1265808;27;20053;-81
2023/05/26 06:06:42;;;;;;;47.55;27.70;;;17.90;99.90;;;;;;4852577;29;20053;-80
2023/05/26 06:09:13;;;;;;;30.83;18.25;;;17.50;99.90;;;;;;4880503;29;20622;-83
2023/05/26 06:23:34;;;;;;;17.70;10.02;;;18.00;99.90;;;;;;5092297;23;20075;-84
2023/05/26 06:35:25;;;;;;;16.45;10.45;;;18.40;99.90;;;;;;5957333;23;20027;-85
2023/05/26 06:42:53;;;;;;;14.82;9.27;;;18.70;99.90;;;;;;4927226;23;20116;-83
2023/05/26 06:49:35;;;;;;;71.50;42.25;;;19.00;99.90;;;;;;4920009;29;20044;-79
2023/05/26 06:52:18;;;;;;;46.45;30.42;;;19.20;99.90;;;;;;4923280;29;20131;-82
2023/05/26 06:54:59;;;;;;;18.23;11.85;;;19.30;99.90;;;;;;4903069;29;20052;-82
2023/05/26 06:57:42;;;;;;;14.60;9.02;;;19.40;99.90;;;;;;4914929;29;20052;-83
2023/05/26 07:00:49;;;;;;;17.48;9.95;;;19.50;99.90;;;;;;4899564;29;20044;-81
2023/05/26 07:03:42;;;;;;;15.30;8.60;;;19.50;99.90;;;;;;4951761;23;20156;-80
2023/05/26 07:07:39;;;;;;;15.48;8.35;;;19.60;99.90;;;;;;4924133;29;20067;-83
2023/05/26 07:11:16;;;;;;;12.90;8.43;;;19.70;99.90;;;;;;4885859;29;20046;-85
2023/05/26 07:35:53;;;;;;;14.93;9.25;;;20.30;99.90;;;;;;5116604;23;20052;-78
2023/05/26 07:51:51;;;;;;;15.15;8.00;;;20.50;99.90;;;;;;4799110;29;20130;-79
2023/05/26 07:54:22;;;;;;;;;;;20.50;99.90;;;;;;4797923;29;20078;-79
2023/05/26 07:57:15;;;;;;;13.75;7.10;;;20.60;99.90;;;;;;4816659;29;20397;-77
2023/05/26 07:59:57;;;;;;;12.40;7.65;;;20.70;99.90;;;;;;4810876;29;20058;-80
2023/05/26 08:02:31;;;;;;;11.13;7.28;;;20.80;99.90;;;;;;4796198;29;20088;-81
2023/05/26 08:14:28;;;;;;;;;;;;;;;;;;;;;
2023/05/26 08:19:05;;;;;;;11.73;6.78;;;21.00;99.90;;;;;;4950949;23;20057;-79
2023/05/26 08:22:39;;;;;;;11.73;5.90;;;21.20;99.90;;;;;;4915754;29;20042;-81
2023/05/26 08:37:18;;;;;;;16.33;8.95;;;21.70;99.90;;;;;;4930686;29;20225;-82
2023/05/26 08:47:03;;;;;;;28.17;17.95;;;21.60;99.90;;;;;;5016255;23;20048;-78
2023/05/26 08:50:47;;;;;;;29.23;19.85;;;21.60;99.90;;;;;;4908684;29;20052;-77
2023/05/26 08:53:35;;;;;;;18.35;9.13;;;21.60;99.90;;;;;;4874023;29;20076;-77
2023/05/26 08:56:38;;;;;;;12.45;8.60;;;21.80;99.90;;;;;;4898541;29;20048;-77
2023/05/26 08:59:33;;;;;;;11.52;7.82;;;21.80;99.90;;;;;;4892594;29;20057;-78
2023/05/26 09:02:03;;;;;;;13.52;8.40;;;21.80;99.90;;;;;;4930554;29;20070;-77
2023/05/26 09:04:32;;;;;;;11.32;7.13;;;21.90;99.90;;;;;;4873506;29;20064;-78
2023/05/26 09:07:02;;;;;;;11.48;6.90;;;22.10;99.90;;;;;;4893535;29;20056;-79
2023/05/26 09:10:45;;;;;;;9.43;6.75;;;22.20;99.90;;;;;;4882297;29;20060;-80
2023/05/26 09:14:20;;;;;;;10.20;6.53;;;22.30;99.90;;;;;;4839331;29;20056;-82
2023/05/26 09:26:40;;;;;;;;;;;;;;;;;;;;;
2023/05/26 09:30:44;;;;;;;8.98;6.18;;;23.30;99.90;;;;;;4841199;29;20113;-77
2023/05/26 09:33:43;;;;;;;10.80;5.45;;;23.40;99.90;;;;;;4990917;23;20079;-76
2023/05/26 09:36:15;;;;;;;9.80;6.13;;;23.30;99.90;;;;;;4918789;29;20374;-76
2023/05/26 09:39:13;;;;;;;11.55;6.07;;;23.40;99.90;;;;;;4909193;29;20042;-78
2023/05/26 09:42:15;;;;;;;10.98;5.90;;;23.30;99.90;;;;;;4930178;29;20052;-77
2023/05/26 09:44:55;;;;;;;10.38;6.22;;;23.30;99.90;;;;;;4904812;29;20063;-76
2023/05/26 09:49:02;;;;;;;8.75;5.82;;;23.10;99.90;;;;;;4856891;29;20137;-76
2023/05/26 09:52:03;;;;;;;;;;;23.30;99.90;;;;;;4839353;29;20069;-78
2023/05/26 09:59:29;;;;;;;9.68;5.03;;;23.50;99.90;;;;;;4828440;29;20054;-77
2023/05/26 10:02:32;;;;;;;9.67;5.10;;;23.80;99.90;;;;;;4809347;29;20068;-82
2023/05/26 10:06:39;;;;;;;;;;;;;;;;;;;;;
2023/05/26 10:10:00;;;;;;;7.18;4.70;;;23.90;98.80;;;;;;4875279;29;20079;-78
2023/05/26 10:12:42;;;;;;;7.18;4.90;;;24.10;98.10;;;;;;4862894;29;20053;-77
2023/05/26 10:19:15;;;;;;;8.10;4.47;;;24.50;97.30;;;;;;4838890;29;20043;-78
2023/05/26 10:29:15;;;;;;;13.80;9.60;;;25.10;95.50;;;;;;4917683;29;20060;-80
2023/05/26 10:33:19;;;;;;;8.93;4.72;;;24.70;92.80;;;;;;4910227;29;20048;-80
2023/05/26 10:35:58;;;;;;;10.05;4.80;;;24.50;91.80;;;;;;4911247;29;20055;-79
2023/05/26 11:02:45;;;;;;;9.20;4.82;;;25.20;87.70;;;;;;4925694;23;20083;-79
2023/05/26 11:09:31;;;;;;;9.27;6.03;;;25.20;87.50;;;;;;4873473;29;20056;-79
2023/05/26 11:16:38;;;;;;;6.10;3.40;;;25.60;88.20;;;;;;4847377;29;20139;-79
2023/05/26 11:26:30;;;;;;;5.93;3.70;;;25.70;84.50;;;;;;4929493;29;20090;-80
2023/05/26 11:35:28;;;;;;;5.78;3.22;;;26.00;82.70;;;;;;5424672;23;20044;-79
2023/05/26 11:38:07;;;;;;;5.80;3.08;;;25.80;80.30;;;;;;4893899;29;20048;-84
2023/05/26 11:41:17;;;;;;;7.57;3.55;;;25.60;81.00;;;;;;4928409;29;20056;-81
2023/05/26 11:44:34;;;;;;;6.57;3.92;;;25.20;81.70;;;;;;4945516;23;20062;-78
2023/05/26 11:48:27;;;;;;;17.88;13.25;;;25.00;81.70;;;;;;4946153;29;20051;-79
2023/05/26 11:52:01;;;;;;;7.90;4.45;;;24.90;85.10;;;;;;4932385;29;20044;-84
2023/05/26 12:05:20;;;;;;;16.83;6.65;;;24.30;88.00;;;;;;4923683;29;20060;-83
2023/05/26 12:14:42;;;;;;;11.35;6.05;;;24.10;90.50;;;;;;4877513;29;20045;-83
2023/05/26 12:21:45;;;;;;;15.98;6.35;;;23.50;90.30;;;;;;5163923;23;20285;-80
2023/05/26 12:28:04;;;;;;;8.55;5.10;;;23.00;92.10;;;;;;5118799;23;20099;-83
2023/05/26 12:30:48;;;;;;;7.40;4.05;;;22.90;92.60;;;;;;4920059;29;20114;-81
2023/05/26 12:33:28;;;;;;;6.32;4.25;;;22.90;92.10;;;;;;4908587;29;20131;-78
2023/05/26 12:36:34;;;;;;;11.77;3.78;;;22.70;92.40;;;;;;4900847;29;20027;-76
2023/05/26 12:39:20;;;;;;;5.85;3.42;;;22.70;90.90;;;;;;4934874;29;20060;-82
2023/05/26 12:43:12;;;;;;;6.55;3.45;;;22.60;90.20;;;;;;4874988;29;20048;-80
2023/05/26 12:52:13;;;;;;;8.73;3.25;;;21.90;90.90;;;;;;4869917;29;20113;-82
2023/05/26 12:59:21;;;;;;;7.03;3.60;;;21.50;90.50;;;;;;4888948;29;20064;-77
2023/05/26 13:01:52;;;;;;;7.68;3.60;;;21.30;91.30;;;;;;4886578;29;20154;-81
2023/05/26 13:04:42;;;;;;;5.63;3.30;;;21.30;91.10;;;;;;4890373;29;20049;-78
2023/05/26 13:12:09;;;;;;;9.40;3.40;;;20.90;92.90;;;;;;4893166;29;20059;-78
2023/05/26 13:15:20;;;;;;;;;;;;;;;;;;;;;
2023/05/26 13:19:27;;;;;;;8.23;3.65;;;20.90;93.70;;;;;;4895351;23;20071;-79
2023/05/26 13:25:52;;;;;;;6.15;3.20;;;20.70;94.20;;;;;;5076501;23;19923;-79
2023/05/26 13:33:19;;;;;;;8.25;3.47;;;21.10;93.60;;;;;;4909470;29;20044;-79
2023/05/26 13:43:26;;;;;;;8.27;2.92;;;20.70;94.20;;;;;;5052210;23;20616;-78
2023/05/26 13:46:41;;;;;;;5.03;3.03;;;20.60;94.10;;;;;;4841571;29;20081;-78
2023/05/26 13:49:51;;;;;;;5.63;3.03;;;20.70;94.20;;;;;;4894593;29;20071;-82
2023/05/26 13:53:18;;;;;;;5.60;2.67;;;20.60;93.60;;;;;;4820346;29;20043;-76
2023/05/26 14:00:35;;;;;;;6.93;3.00;;;20.70;92.70;;;;;;4813227;29;20768;-80
2023/05/26 14:03:14;;;;;;;7.47;3.17;;;20.40;93.60;;;;;;4810960;29;20079;-78
2023/05/26 14:06:34;;;;;;;6.63;3.10;;;20.00;94.70;;;;;;4817856;29;20065;-78
2023/05/26 14:09:14;;;;;;;5.43;2.97;;;19.90;95.30;;;;;;4816711;29;20055;-76
2023/05/26 14:18:50;;;;;;;8.27;3.13;;;20.20;94.90;;;;;;4918992;29;20106;-77
2023/05/26 14:21:50;;;;;;;9.75;3.70;;;20.30;94.50;;;;;;4906102;29;20075;-78
2023/05/26 14:32:25;;;;;;;7.93;4.07;;;20.60;95.30;;;;;;4926583;29;20080;-79
2023/05/26 14:35:10;;;;;;;7.03;4.07;;;20.80;96.40;;;;;;4932996;29;20125;-77
2023/05/26 14:37:37;;;;;;;6.70;3.65;;;20.70;96.90;;;;;;4905997;29;20048;-77
2023/05/26 14:40:07;;;;;;;6.88;3.80;;;20.70;97.20;;;;;;4909005;29;20151;-78
2023/05/26 14:42:36;;;;;;;12.50;4.47;;;20.80;97.30;;;;;;4920430;29;20048;-75
2023/05/26 14:45:05;;;;;;;6.28;3.90;;;21.00;97.40;;;;;;4910254;29;20063;-76
2023/05/26 14:51:12;;;;;;;8.55;3.95;;;20.70;97.60;;;;;;4916659;29;20044;-76
2023/05/26 14:53:59;;;;;;;9.02;4.10;;;20.70;97.30;;;;;;4894698;29;20076;-80
2023/05/26 14:56:40;;;;;;;6.72;3.60;;;20.80;97.20;;;;;;4921488;29;20080;-81
2023/05/26 14:59:19;;;;;;;6.28;3.42;;;20.70;96.80;;;;;;4909912;29;20087;-75
2023/05/26 15:05:19;;;;;;;6.35;3.42;;;21.00;95.80;;;;;;4904600;29;20056;-76
2023/05/26 15:07:54;;;;;;;9.68;4.30;;;21.60;95.20;;;;;;4926641;29;20033;-76
2023/05/26 15:10:49;;;;;;;6.60;3.17;;;22.60;94.30;;;;;;4925778;29;20063;-77
2023/05/26 15:13:47;;;;;;;5.90;2.95;;;21.90;94.40;;;;;;4911729;29;20056;-75
2023/05/26 15:16:42;;;;;;;6.65;3.42;;;21.80;94.40;;;;;;4889955;29;20076;-77
2023/05/26 15:26:51;;;;;;;7.45;3.75;;;23.50;93.20;;;;;;4917431;29;20047;-76
2023/05/26 15:29:35;;;;;;;6.32;3.50;;;23.30;93.30;;;;;;4917279;29;20047;-75
2023/05/26 15:35:56;;;;;;;5.55;3.38;;;24.00;91.10;;;;;;4927446;29;20062;-77
2023/05/26 15:38:46;;;;;;;5.57;2.50;;;26.10;85.50;;;;;;4923055;29;20059;-77
2023/05/26 15:42:03;;;;;;;6.72;3.13;;;24.40;89.30;;;;;;5019620;23;20080;-79
2023/05/26 15:45:02;;;;;;;;;;;;;;;;;;;;;
2023/05/26 15:48:05;;;;;;;45.63;33.13;;;25.40;90.30;;;;;;4870219;29;20125;-80
2023/05/26 15:51:36;;;;;;;30.52;24.50;;;28.60;81.00;;;;;;4842306;29;20041;-81
2023/05/26 15:54:17;;;;;;;18.75;10.80;;;27.40;82.10;;;;;;4882465;23;20051;-79
2023/05/26 15:57:19;;;;;;;7.85;3.60;;;25.80;82.80;;;;;;4927505;29;20104;-76
2023/05/26 16:00:14;;;;;;;8.63;3.33;;;26.10;80.80;;;;;;4878576;29;20056;-76
2023/05/26 16:06:54;;;;;;;6.95;2.75;;;24.30;89.40;;;;;;4902757;29;20060;-77
2023/05/26 16:09:46;;;;;;;8.20;2.90;;;24.20;88.30;;;;;;4932178;29;20039;-80
2023/05/26 16:12:41;;;;;;;6.95;2.50;;;24.00;89.10;;;;;;4916543;29;20052;-76
2023/05/26 16:15:36;;;;;;;5.03;2.70;;;24.80;87.90;;;;;;4903965;29;20056;-78
2023/05/26 16:18:13;;;;;;;4.90;2.85;;;25.30;85.30;;;;;;4910503;29;20071;-76
2023/05/26 16:20:48;;;;;;;6.95;3.47;;;23.00;90.80;;;;;;4921514;23;20108;-75
2023/05/26 16:23:46;;;;;;;5.47;3.17;;;23.40;89.20;;;;;;4896093;29;20056;-79
2023/05/26 16:29:37;;;;;;;4.53;2.70;;;23.70;91.40;;;;;;5026384;23;20059;-76
2023/05/26 16:32:07;;;;;;;5.78;3.30;;;25.10;87.40;;;;;;4921934;29;20203;-80
2023/05/26 16:34:36;;;;;;;9.52;3.05;;;25.80;84.40;;;;;;4887945;29;20135;-77
2023/05/26 16:37:41;;;;;;;6.55;2.60;;;25.90;83.90;;;;;;4925782;29;20055;-77
2023/05/26 16:45:08;;;;;;;6.47;3.25;;;25.80;82.20;;;;;;4826377;29;20150;-76
2023/05/26 16:47:56;;;;;;;6.70;2.45;;;26.30;80.40;;;;;;4831596;29;20452;-80
2023/05/26 16:50:42;;;;;;;5.00;2.88;;;26.70;80.20;;;;;;4924499;29;20048;-76
2023/05/26 16:53:41;;;;;;;6.00;2.42;;;27.50;77.90;;;;;;4878050;29;20100;-78
2023/05/26 16:59:12;;;;;;;7.75;3.17;;;26.50;76.40;;;;;;5184289;23;20052;-80
2023/05/26 17:01:41;;;;;;;4.90;2.50;;;24.50;83.10;;;;;;4927510;29;20100;-79
2023/05/26 17:10:58;;;;;;;6.40;3.08;;;22.30;91.80;;;;;;4805011;27;20036;-82
2023/05/26 17:13:28;;;;;;;5.72;3.03;;;22.80;91.50;;;;;;4919664;29;20083;-81
2023/05/26 17:15:59;;;;;;;4.95;2.80;;;22.50;92.00;;;;;;4897963;29;20052;-78
2023/05/26 17:18:55;;;;;;;4.95;3.05;;;22.30;92.30;;;;;;4903508;29;20104;-79
2023/05/26 17:22:08;;;;;;;10.48;5.05;;;21.50;93.40;;;;;;4883052;29;20116;-82
2023/05/26 17:28:10;;;;;;;;;;;20.10;97.50;;;;;;4899693;29;20056;-76
2023/05/26 17:31:03;;;;;;;9.52;4.07;;;19.90;98.40;;;;;;4918306;29;19930;-80
2023/05/26 17:33:56;;;;;;;9.60;3.75;;;19.70;99.30;;;;;;4904090;29;20049;-78
2023/05/26 17:36:30;;;;;;;6.75;3.83;;;19.80;99.60;;;;;;4887895;29;20048;-82
2023/05/26 17:39:37;;;;;;;6.97;3.58;;;20.20;99.50;;;;;;4895074;29;20456;-83
2023/05/26 17:42:32;;;;;;;6.63;3.65;;;20.10;99.50;;;;;;4951538;23;20048;-76
2023/05/26 17:45:33;;;;;;;6.25;2.92;;;19.90;99.90;;;;;;4899885;29;20053;-76
2023/05/26 17:48:22;;;;;;;6.55;3.47;;;19.50;99.90;;;;;;4857006;29;20062;-75
2023/05/26 17:51:37;;;;;;;9.70;4.15;;;19.40;99.90;;;;;;4882397;29;20133;-77
2023/05/26 17:55:00;;;;;;;56.88;38.35;;;19.40;99.90;;;;;;4885176;29;20049;-78
2023/05/26 18:00:29;;;;;;;6.32;3.92;;;19.60;99.90;;;;;;5379232;23;20052;-83
2023/05/26 18:04:18;;;;;;;8.17;3.23;;;19.00;99.90;;;;;;4890142;29;20068;-81
2023/05/26 18:08:08;;;;;;;;;;;;;;;;;;;;;
2023/05/26 18:11:37;;;;;;;7.65;3.60;;;18.80;99.90;;;;;;4857452;29;20130;-80
2023/05/26 18:18:30;;;;;;;5.38;3.75;;;18.70;99.90;;;;;;5021864;23;20104;-79
2023/05/26 18:21:14;;;;;;;6.22;3.20;;;18.50;99.90;;;;;;4922999;29;20107;-79
2023/05/26 18:38:34;;;;;;;5.70;3.25;;;18.40;99.90;;;;;;4718480;27;20033;-84
2023/05/26 18:41:48;;;;;;;7.07;4.00;;;18.50;99.90;;;;;;4914637;23;20115;-84
2023/05/26 18:57:32;;;;;;;7.93;3.63;;;18.80;99.90;;;;;;5784335;23;20052;-81
2023/05/26 19:07:30;;;;;;;8.45;3.35;;;18.50;99.90;;;;;;4888949;24;20049;-82
2023/05/26 19:11:23;;;;;;;6.65;4.03;;;18.50;99.90;;;;;;4846718;29;20404;-82
2023/05/26 19:14:05;;;;;;;8.20;3.67;;;18.60;99.90;;;;;;5152315;23;20043;-83
2023/05/26 19:17:14;;;;;;;6.88;3.72;;;18.60;99.90;;;;;;4862417;29;20182;-83
2023/05/26 19:20:50;;;;;;;8.30;3.75;;;18.60;99.90;;;;;;5183462;23;20063;-82
2023/05/26 19:24:11;;;;;;;9.43;3.67;;;18.40;99.90;;;;;;4944946;23;20072;-82
2023/05/26 19:27:15;;;;;;;8.55;3.45;;;18.10;99.90;;;;;;4875435;29;20506;-80
2023/05/26 19:30:44;;;;;;;8.43;3.67;;;18.00;99.90;;;;;;4865512;29;20075;-81
2023/05/26 19:42:33;;;;;;;7.55;3.50;;;17.90;99.90;;;;;;5163847;23;20044;-82
2023/05/26 19:45:15;;;;;;;8.45;3.63;;;17.90;99.90;;;;;;4896899;29;20075;-81
2023/05/26 19:51:46;;;;;;;11.10;4.38;;;17.90;99.90;;;;;;4889866;29;20078;-81
2023/05/26 19:54:17;;;;;;;9.85;4.18;;;17.90;99.90;;;;;;5053702;23;20037;-79
2023/05/26 19:57:13;;;;;;;8.68;4.10;;;17.80;99.90;;;;;;4942658;23;20045;31
2023/05/26 20:08:59;;;;;;;8.05;4.60;;;17.90;99.90;;;;;;4826322;29;20104;-80
2023/05/26 20:12:15;;;;;;;7.32;3.72;;;17.90;99.90;;;;;;4814421;29;20054;-80
2023/05/26 20:23:15;;;;;;;8.98;5.80;;;18.00;99.90;;;;;;4874078;29;20040;-80
2023/05/26 20:29:48;;;;;;;16.50;7.73;;;18.00;99.90;;;;;;4768312;29;20053;-79
2023/05/26 20:32:52;;;;;;;14.38;7.82;;;18.00;99.90;;;;;;4813324;29;20054;-80
2023/05/26 20:35:36;;;;;;;6.43;4.50;;;18.10;99.90;;;;;;4837892;29;20067;-80
2023/05/26 20:38:54;;;;;;;;;;;;;;;;;;;;;
2023/05/26 20:56:29;;;;;;;8.85;4.22;;;18.00;99.90;;;;;;4909346;29;20054;-80
2023/05/26 21:03:14;;;;;;;7.18;4.25;;;18.00;99.90;;;;;;5210797;23;20060;-80
2023/05/26 21:05:42;;;;;;;11.65;4.53;;;17.80;99.90;;;;;;4893845;29;20478;-80
2023/05/26 21:11:48;;;;;;;12.60;4.60;;;17.90;99.90;;;;;;4901256;29;20045;-79
2023/05/26 21:14:15;;;;;;;9.18;5.13;;;17.70;99.90;;;;;;4893226;29;20077;-80
2023/05/26 21:17:09;;;;;;;8.80;4.65;;;17.80;99.90;;;;;;4912634;29;20080;-79
2023/05/26 21:23:46;;;;;;;7.97;4.65;;;17.70;99.90;;;;;;4889208;29;20081;-79
2023/05/26 21:26:15;;;;;;;10.48;5.10;;;17.70;99.90;;;;;;4888930;29;20062;-78
2023/05/26 21:28:57;;;;;;;10.88;5.78;;;17.70;99.90;;;;;;4880451;29;20049;-80
2023/05/26 21:32:01;;;;;;;8.00;4.95;;;17.60;99.90;;;;;;4907580;29;20102;-79
2023/05/26 21:34:29;;;;;;;9.70;5.70;;;17.50;99.90;;;;;;4927084;29;20048;-81
2023/05/26 21:37:07;;;;;;;13.82;6.28;;;17.30;99.90;;;;;;4924875;29;20504;-79
2023/05/26 21:43:11;;;;;;;9.00;5.72;;;16.90;99.90;;;;;;5255004;23;20056;-81
2023/05/26 21:45:39;;;;;;;8.57;5.60;;;16.90;99.90;;;;;;4916883;29;20107;-80
2023/05/26 21:48:20;;;;;;;9.90;6.38;;;17.00;99.90;;;;;;4900797;29;20480;-79
2023/05/26 21:50:54;;;;;;;11.68;6.05;;;17.10;99.90;;;;;;4902684;29;20080;-77
2023/05/26 21:53:48;;;;;;;11.85;6.32;;;17.00;99.90;;;;;;4872092;27;20048;-77
2023/05/26 22:11:52;;;;;;;13.00;6.47;;;17.10;99.90;;;;;;5009613;23;20052;-79
2023/05/26 22:14:36;;;;;;;11.10;5.75;;;17.10;99.90;;;;;;4899135;29;20128;-77
2023/05/26 22:29:03;;;;;;;9.43;5.68;;;16.70;99.90;;;;;;5486816;23;20052;-80
2023/05/26 22:32:38;;;;;;;;;;;16.80;99.90;;;;;;4923494;29;20039;-78
2023/05/26 22:35:35;;;;;;;12.07;5.38;;;16.90;99.90;;;;;;4938743;29;20410;-80
2023/05/26 22:38:20;;;;;;;10.05;6.35;;;16.80;99.90;;;;;;5283102;23;20471;-80
2023/05/26 22:41:01;;;;;;;10.98;6.15;;;16.80;99.90;;;;;;4890721;29;20082;-80
2023/05/26 22:43:31;;;;;;;15.43;9.27;;;16.70;99.90;;;;;;4921964;29;20067;-75
2023/05/26 22:46:08;;;;;;;116.70;69.53;;;16.80;99.90;;;;;;4899240;29;20048;-78
2023/05/26 22:48:39;;;;;;;110.82;67.97;;;16.80;99.90;;;;;;4914607;29;20139;-74
2023/05/26 22:51:25;;;;;;;14.90;12.38;;;16.80;99.90;;;;;;4872285;29;20068;-82
2023/05/26 22:53:55;;;;;;;13.00;7.53;;;16.70;99.90;;;;;;4887588;29;20143;-80
2023/05/26 22:56:25;;;;;;;27.52;18.80;;;16.50;99.90;;;;;;4891727;29;20058;-76
2023/05/26 22:58:56;;;;;;;24.42;14.73;;;16.70;99.90;;;;;;4905823;29;20056;-79
2023/05/26 23:01:27;;;;;;;15.75;8.32;;;16.80;99.90;;;;;;4896264;29;20049;-76
2023/05/26 23:04:38;;;;;;;10.23;6.72;;;16.80;99.90;;;;;;4909984;29;20056;-75
2023/05/26 23:07:37;;;;;;;16.60;7.88;;;16.80;99.90;;;;;;4893538;29;20109;-74
2023/05/26 23:15:10;;;;;;;9.95;6.18;;;16.30;99.90;;;;;;4916721;29;20027;-80
2023/05/26 23:22:05;;;;;;;13.90;6.57;;;16.40;99.90;;;;;;4901715;29;20462;-82
2023/05/26 23:25:06;;;;;;;10.15;6.53;;;16.20;99.90;;;;;;4882504;29;20496;-82
2023/05/26 23:35:52;;;;;;;10.63;6.80;;;16.40;99.90;;;;;;4933975;29;20042;-80
2023/05/26 23:38:21;;;;;;;10.55;6.03;;;16.30;99.90;;;;;;4897378;29;20068;-80
2023/05/26 23:41:09;;;;;;;15.95;6.93;;;16.30;99.90;;;;;;4892528;29;20053;-81
2023/05/26 23:47:55;;;;;;;9.98;6.43;;;16.20;99.90;;;;;;5006517;23;20525;-81
2023/05/26 23:51:14;;;;;;;11.35;6.63;;;16.10;99.90;;;;;;5068180;23;20085;-80
2023/05/26 23:54:02;;;;;;;14.25;6.00;;;16.10;99.90;;;;;;4892158;29;20056;-81
2023/05/26 23:56:50;;;;;;;10.43;6.55;;;16.20;99.90;;;;;;4902672;29;20068;-79
2023/05/26 23:59:33;;;;;;;14.88;7.53;;;16.30;99.90;;;;;;4893313;29;20104;-80
